sensor_id;sensor_type;location;lat;lon;timestamp;P1;durP1;ratioP1;P2;durP2;ratioP2
20322;SDS011;10319;52.206;20.996;2022-11-15T00:00:59;27.00;;;11.93;;
20322;SDS011;10319;52.206;20.996;2022-11-15T00:03:25;27.97;;;11.87;;
20322;SDS011;10319;52.206;20.996;2022-11-15T00:05:51;26.27;;;11.70;;
20322;SDS011;10319;52.206;20.996;2022-11-15T00:08:16;28.17;;;12.63;;
20322;SDS011;10319;52.206;20.996;2022-11-15T00:10:42;28.20;;;12.60;;
20322;SDS011;10319;52.206;20.996;2022-11-15T00:13:08;26.23;;;12.47;;
20322;SDS011;10319;52.206;20.996;2022-11-15T00:15:36;25.10;;;12.17;;
20322;SDS011;10319;52.206;20.996;2022-11-15T00:18:02;26.57;;;12.27;;
20322;SDS011;10319;52.206;20.996;2022-11-15T00:20:27;26.20;;;11.70;;
20322;SDS011;10319;52.206;20.996;2022-11-15T00:22:53;26.57;;;11.70;;
20322;SDS011;10319;52.206;20.996;2022-11-15T00:25:18;29.67;;;13.23;;
20322;SDS011;10319;52.206;20.996;2022-11-15T00:27:43;28.70;;;13.50;;
20322;SDS011;10319;52.206;20.996;2022-11-15T00:30:10;29.53;;;13.63;;
20322;SDS011;10319;52.206;20.996;2022-11-15T00:32:35;26.97;;;12.97;;
20322;SDS011;10319;52.206;20.996;2022-11-15T00:35:00;28.77;;;13.33;;
20322;SDS011;10319;52.206;20.996;2022-11-15T00:37:26;31.07;;;14.00;;
20322;SDS011;10319;52.206;20.996;2022-11-15T00:39:51;28.10;;;13.27;;
20322;SDS011;10319;52.206;20.996;2022-11-15T00:42:16;29.17;;;13.63;;
20322;SDS011;10319;52.206;20.996;2022-11-15T00:44:41;29.07;;;13.73;;
20322;SDS011;10319;52.206;20.996;2022-11-15T00:47:06;31.67;;;14.47;;
20322;SDS011;10319;52.206;20.996;2022-11-15T00:49:31;30.63;;;14.43;;
20322;SDS011;10319;52.206;20.996;2022-11-15T00:51:57;35.37;;;16.00;;
20322;SDS011;10319;52.206;20.996;2022-11-15T00:54:22;34.50;;;16.00;;
20322;SDS011;10319;52.206;20.996;2022-11-15T00:56:47;29.40;;;14.53;;
20322;SDS011;10319;52.206;20.996;2022-11-15T00:59:12;34.93;;;16.23;;
20322;SDS011;10319;52.206;20.996;2022-11-15T01:01:37;37.30;;;16.30;;
20322;SDS011;10319;52.206;20.996;2022-11-15T01:04:03;33.67;;;15.87;;
20322;SDS011;10319;52.206;20.996;2022-11-15T01:06:28;38.30;;;17.87;;
20322;SDS011;10319;52.206;20.996;2022-11-15T01:08:53;37.03;;;17.20;;
20322;SDS011;10319;52.206;20.996;2022-11-15T01:11:18;34.77;;;16.13;;
20322;SDS011;10319;52.206;20.996;2022-11-15T01:13:43;36.77;;;17.30;;
20322;SDS011;10319;52.206;20.996;2022-11-15T01:16:12;34.23;;;16.07;;
20322;SDS011;10319;52.206;20.996;2022-11-15T01:18:38;36.83;;;16.80;;
20322;SDS011;10319;52.206;20.996;2022-11-15T01:21:04;37.23;;;17.57;;
20322;SDS011;10319;52.206;20.996;2022-11-15T01:23:32;37.40;;;17.23;;
20322;SDS011;10319;52.206;20.996;2022-11-15T01:25:58;35.03;;;16.13;;
20322;SDS011;10319;52.206;20.996;2022-11-15T01:28:24;37.33;;;17.30;;
20322;SDS011;10319;52.206;20.996;2022-11-15T01:30:49;35.23;;;16.60;;
20322;SDS011;10319;52.206;20.996;2022-11-15T01:33:14;35.77;;;17.03;;
20322;SDS011;10319;52.206;20.996;2022-11-15T01:35:39;37.73;;;17.70;;
20322;SDS011;10319;52.206;20.996;2022-11-15T01:38:05;36.10;;;16.73;;
20322;SDS011;10319;52.206;20.996;2022-11-15T01:40:30;36.30;;;16.60;;
20322;SDS011;10319;52.206;20.996;2022-11-15T01:42:55;35.90;;;16.47;;
20322;SDS011;10319;52.206;20.996;2022-11-15T01:45:20;36.93;;;16.80;;
20322;SDS011;10319;52.206;20.996;2022-11-15T01:47:47;35.00;;;16.77;;
20322;SDS011;10319;52.206;20.996;2022-11-15T01:50:14;36.67;;;15.87;;
20322;SDS011;10319;52.206;20.996;2022-11-15T01:52:41;35.67;;;16.57;;
20322;SDS011;10319;52.206;20.996;2022-11-15T01:57:32;36.40;;;15.83;;
20322;SDS011;10319;52.206;20.996;2022-11-15T01:59:57;36.77;;;16.23;;
20322;SDS011;10319;52.206;20.996;2022-11-15T02:02:23;34.67;;;15.63;;
20322;SDS011;10319;52.206;20.996;2022-11-15T02:04:48;33.80;;;15.33;;
20322;SDS011;10319;52.206;20.996;2022-11-15T02:07:15;35.30;;;16.07;;
20322;SDS011;10319;52.206;20.996;2022-11-15T02:09:40;37.60;;;17.73;;
20322;SDS011;10319;52.206;20.996;2022-11-15T02:12:06;35.10;;;16.13;;
20322;SDS011;10319;52.206;20.996;2022-11-15T02:14:33;36.73;;;15.70;;
20322;SDS011;10319;52.206;20.996;2022-11-15T02:24:51;34.60;;;16.87;;
20322;SDS011;10319;52.206;20.996;2022-11-15T02:30:20;34.83;;;16.60;;
20322;SDS011;10319;52.206;20.996;2022-11-15T02:32:48;36.27;;;16.73;;
20322;SDS011;10319;52.206;20.996;2022-11-15T02:35:28;37.37;;;16.83;;
20322;SDS011;10319;52.206;20.996;2022-11-15T02:37:58;36.77;;;16.73;;
20322;SDS011;10319;52.206;20.996;2022-11-15T02:43:12;35.57;;;16.23;;
20322;SDS011;10319;52.206;20.996;2022-11-15T02:46:16;35.97;;;16.77;;
20322;SDS011;10319;52.206;20.996;2022-11-15T02:48:43;38.47;;;16.53;;
20322;SDS011;10319;52.206;20.996;2022-11-15T02:51:09;35.90;;;16.23;;
20322;SDS011;10319;52.206;20.996;2022-11-15T02:53:34;38.97;;;17.67;;
20322;SDS011;10319;52.206;20.996;2022-11-15T02:56:00;38.07;;;17.33;;
20322;SDS011;10319;52.206;20.996;2022-11-15T02:59:09;38.03;;;17.70;;
20322;SDS011;10319;52.206;20.996;2022-11-15T03:04:04;38.97;;;18.40;;
20322;SDS011;10319;52.206;20.996;2022-11-15T03:06:39;40.57;;;19.23;;
20322;SDS011;10319;52.206;20.996;2022-11-15T03:09:12;42.37;;;20.07;;
20322;SDS011;10319;52.206;20.996;2022-11-15T03:11:43;39.50;;;17.97;;
20322;SDS011;10319;52.206;20.996;2022-11-15T03:14:27;40.90;;;19.30;;
20322;SDS011;10319;52.206;20.996;2022-11-15T03:19:30;39.57;;;18.67;;
20322;SDS011;10319;52.206;20.996;2022-11-15T03:21:57;41.80;;;19.93;;
20322;SDS011;10319;52.206;20.996;2022-11-15T03:24:24;44.33;;;20.30;;
20322;SDS011;10319;52.206;20.996;2022-11-15T03:26:50;45.97;;;20.20;;
20322;SDS011;10319;52.206;20.996;2022-11-15T03:29:17;42.00;;;19.20;;
20322;SDS011;10319;52.206;20.996;2022-11-15T03:31:46;46.10;;;20.53;;
20322;SDS011;10319;52.206;20.996;2022-11-15T03:34:15;44.43;;;19.93;;
20322;SDS011;10319;52.206;20.996;2022-11-15T03:36:44;44.27;;;20.57;;
20322;SDS011;10319;52.206;20.996;2022-11-15T03:39:09;46.57;;;21.13;;
20322;SDS011;10319;52.206;20.996;2022-11-15T03:46:33;47.27;;;21.20;;
20322;SDS011;10319;52.206;20.996;2022-11-15T03:49:19;46.23;;;21.10;;
20322;SDS011;10319;52.206;20.996;2022-11-15T03:51:45;44.03;;;20.30;;
20322;SDS011;10319;52.206;20.996;2022-11-15T03:54:11;42.17;;;19.80;;
20322;SDS011;10319;52.206;20.996;2022-11-15T03:56:37;42.67;;;19.67;;
20322;SDS011;10319;52.206;20.996;2022-11-15T03:59:02;45.37;;;20.30;;
20322;SDS011;10319;52.206;20.996;2022-11-15T04:01:27;42.87;;;19.33;;
20322;SDS011;10319;52.206;20.996;2022-11-15T04:03:52;42.43;;;18.83;;
20322;SDS011;10319;52.206;20.996;2022-11-15T04:06:18;43.00;;;18.63;;
20322;SDS011;10319;52.206;20.996;2022-11-15T04:08:43;41.37;;;19.00;;
20322;SDS011;10319;52.206;20.996;2022-11-15T04:11:08;42.90;;;18.53;;
20322;SDS011;10319;52.206;20.996;2022-11-15T04:13:33;44.47;;;19.20;;
20322;SDS011;10319;52.206;20.996;2022-11-15T04:15:58;42.23;;;18.90;;
20322;SDS011;10319;52.206;20.996;2022-11-15T04:18:23;41.63;;;18.37;;
20322;SDS011;10319;52.206;20.996;2022-11-15T04:20:49;41.97;;;17.63;;
20322;SDS011;10319;52.206;20.996;2022-11-15T04:23:33;40.30;;;17.53;;
20322;SDS011;10319;52.206;20.996;2022-11-15T04:26:18;41.80;;;19.20;;
20322;SDS011;10319;52.206;20.996;2022-11-15T04:28:44;42.53;;;17.63;;
20322;SDS011;10319;52.206;20.996;2022-11-15T04:31:28;40.90;;;18.43;;
20322;SDS011;10319;52.206;20.996;2022-11-15T04:33:53;42.93;;;18.97;;
20322;SDS011;10319;52.206;20.996;2022-11-15T04:36:19;37.67;;;16.47;;
20322;SDS011;10319;52.206;20.996;2022-11-15T04:39:03;41.43;;;18.10;;
20322;SDS011;10319;52.206;20.996;2022-11-15T04:41:28;40.87;;;18.13;;
20322;SDS011;10319;52.206;20.996;2022-11-15T04:43:54;43.20;;;18.93;;
20322;SDS011;10319;52.206;20.996;2022-11-15T04:46:19;40.57;;;17.63;;
20322;SDS011;10319;52.206;20.996;2022-11-15T04:48:44;35.23;;;15.90;;
20322;SDS011;10319;52.206;20.996;2022-11-15T04:51:09;40.80;;;18.07;;
20322;SDS011;10319;52.206;20.996;2022-11-15T04:53:34;39.37;;;17.20;;
20322;SDS011;10319;52.206;20.996;2022-11-15T04:56:00;40.67;;;17.93;;
20322;SDS011;10319;52.206;20.996;2022-11-15T04:58:25;41.73;;;17.67;;
20322;SDS011;10319;52.206;20.996;2022-11-15T05:00:50;45.00;;;18.97;;
20322;SDS011;10319;52.206;20.996;2022-11-15T05:03:15;43.97;;;18.37;;
20322;SDS011;10319;52.206;20.996;2022-11-15T05:05:59;43.97;;;18.87;;
20322;SDS011;10319;52.206;20.996;2022-11-15T05:08:25;41.93;;;17.97;;
20322;SDS011;10319;52.206;20.996;2022-11-15T05:10:50;42.90;;;17.80;;
20322;SDS011;10319;52.206;20.996;2022-11-15T05:13:15;43.57;;;17.57;;
20322;SDS011;10319;52.206;20.996;2022-11-15T05:15:40;45.30;;;18.27;;
20322;SDS011;10319;52.206;20.996;2022-11-15T05:18:05;44.13;;;18.00;;
20322;SDS011;10319;52.206;20.996;2022-11-15T05:20:31;45.53;;;17.50;;
20322;SDS011;10319;52.206;20.996;2022-11-15T05:22:56;45.63;;;18.47;;
20322;SDS011;10319;52.206;20.996;2022-11-15T05:25:21;44.47;;;18.80;;
20322;SDS011;10319;52.206;20.996;2022-11-15T05:27:47;49.17;;;18.63;;
20322;SDS011;10319;52.206;20.996;2022-11-15T05:30:12;42.93;;;18.07;;
20322;SDS011;10319;52.206;20.996;2022-11-15T05:32:37;41.93;;;17.40;;
20322;SDS011;10319;52.206;20.996;2022-11-15T05:35:02;38.13;;;16.10;;
20322;SDS011;10319;52.206;20.996;2022-11-15T05:37:30;43.53;;;18.40;;
20322;SDS011;10319;52.206;20.996;2022-11-15T05:39:55;43.00;;;17.27;;
20322;SDS011;10319;52.206;20.996;2022-11-15T05:42:20;47.90;;;19.17;;
20322;SDS011;10319;52.206;20.996;2022-11-15T05:44:48;45.47;;;18.70;;
20322;SDS011;10319;52.206;20.996;2022-11-15T05:47:15;42.97;;;17.27;;
20322;SDS011;10319;52.206;20.996;2022-11-15T05:49:42;43.37;;;17.63;;
20322;SDS011;10319;52.206;20.996;2022-11-15T05:52:09;42.87;;;18.80;;
20322;SDS011;10319;52.206;20.996;2022-11-15T05:54:35;40.07;;;16.80;;
20322;SDS011;10319;52.206;20.996;2022-11-15T05:57:01;40.70;;;16.90;;
20322;SDS011;10319;52.206;20.996;2022-11-15T05:59:30;45.27;;;17.90;;
20322;SDS011;10319;52.206;20.996;2022-11-15T06:01:56;40.57;;;17.43;;
20322;SDS011;10319;52.206;20.996;2022-11-15T06:04:21;40.23;;;16.10;;
20322;SDS011;10319;52.206;20.996;2022-11-15T06:06:47;40.77;;;16.93;;
20322;SDS011;10319;52.206;20.996;2022-11-15T06:09:12;41.57;;;16.97;;
20322;SDS011;10319;52.206;20.996;2022-11-15T06:11:37;43.33;;;17.47;;
20322;SDS011;10319;52.206;20.996;2022-11-15T06:14:02;42.67;;;17.83;;
20322;SDS011;10319;52.206;20.996;2022-11-15T06:16:27;45.00;;;18.63;;
20322;SDS011;10319;52.206;20.996;2022-11-15T06:18:53;43.33;;;17.23;;
20322;SDS011;10319;52.206;20.996;2022-11-15T06:21:18;43.40;;;18.20;;
20322;SDS011;10319;52.206;20.996;2022-11-15T06:23:43;45.73;;;18.63;;
20322;SDS011;10319;52.206;20.996;2022-11-15T06:26:08;44.73;;;18.23;;
20322;SDS011;10319;52.206;20.996;2022-11-15T06:28:33;44.53;;;18.47;;
20322;SDS011;10319;52.206;20.996;2022-11-15T06:31:06;42.10;;;18.17;;
20322;SDS011;10319;52.206;20.996;2022-11-15T06:33:31;47.70;;;18.60;;
20322;SDS011;10319;52.206;20.996;2022-11-15T06:36:00;48.67;;;19.23;;
20322;SDS011;10319;52.206;20.996;2022-11-15T06:38:25;47.03;;;19.63;;
20322;SDS011;10319;52.206;20.996;2022-11-15T06:40:51;46.47;;;18.30;;
20322;SDS011;10319;52.206;20.996;2022-11-15T06:43:16;41.87;;;17.27;;
20322;SDS011;10319;52.206;20.996;2022-11-15T06:45:41;40.57;;;16.90;;
20322;SDS011;10319;52.206;20.996;2022-11-15T06:48:06;37.70;;;14.67;;
20322;SDS011;10319;52.206;20.996;2022-11-15T06:50:31;36.17;;;15.37;;
20322;SDS011;10319;52.206;20.996;2022-11-15T06:53:00;39.37;;;16.53;;
20322;SDS011;10319;52.206;20.996;2022-11-15T06:55:25;37.03;;;15.57;;
20322;SDS011;10319;52.206;20.996;2022-11-15T06:57:51;35.20;;;14.70;;
20322;SDS011;10319;52.206;20.996;2022-11-15T07:00:17;37.67;;;15.20;;
20322;SDS011;10319;52.206;20.996;2022-11-15T07:02:43;38.47;;;14.47;;
20322;SDS011;10319;52.206;20.996;2022-11-15T07:05:08;34.53;;;14.47;;
20322;SDS011;10319;52.206;20.996;2022-11-15T07:07:34;32.70;;;13.60;;
20322;SDS011;10319;52.206;20.996;2022-11-15T07:09:59;28.53;;;11.93;;
20322;SDS011;10319;52.206;20.996;2022-11-15T07:12:24;31.50;;;13.33;;
20322;SDS011;10319;52.206;20.996;2022-11-15T07:14:49;34.40;;;14.00;;
20322;SDS011;10319;52.206;20.996;2022-11-15T07:17:14;32.13;;;13.53;;
20322;SDS011;10319;52.206;20.996;2022-11-15T07:19:39;33.80;;;13.77;;
20322;SDS011;10319;52.206;20.996;2022-11-15T07:22:05;32.50;;;14.17;;
20322;SDS011;10319;52.206;20.996;2022-11-15T07:24:30;35.80;;;14.77;;
20322;SDS011;10319;52.206;20.996;2022-11-15T07:26:55;35.57;;;13.90;;
20322;SDS011;10319;52.206;20.996;2022-11-15T07:29:20;31.03;;;12.63;;
20322;SDS011;10319;52.206;20.996;2022-11-15T07:31:45;37.73;;;14.80;;
20322;SDS011;10319;52.206;20.996;2022-11-15T07:34:11;36.03;;;14.47;;
20322;SDS011;10319;52.206;20.996;2022-11-15T07:36:36;32.77;;;13.90;;
20322;SDS011;10319;52.206;20.996;2022-11-15T07:39:01;33.77;;;14.33;;
20322;SDS011;10319;52.206;20.996;2022-11-15T07:41:26;30.20;;;13.20;;
20322;SDS011;10319;52.206;20.996;2022-11-15T07:43:51;27.87;;;12.07;;
20322;SDS011;10319;52.206;20.996;2022-11-15T07:46:17;31.27;;;13.40;;
20322;SDS011;10319;52.206;20.996;2022-11-15T07:48:42;30.87;;;12.57;;
20322;SDS011;10319;52.206;20.996;2022-11-15T07:51:10;29.13;;;12.20;;
20322;SDS011;10319;52.206;20.996;2022-11-15T07:53:35;30.33;;;12.17;;
20322;SDS011;10319;52.206;20.996;2022-11-15T07:56:01;30.93;;;12.97;;
20322;SDS011;10319;52.206;20.996;2022-11-15T07:58:26;28.70;;;11.63;;
20322;SDS011;10319;52.206;20.996;2022-11-15T08:00:51;30.20;;;12.97;;
20322;SDS011;10319;52.206;20.996;2022-11-15T08:03:16;30.83;;;12.80;;
20322;SDS011;10319;52.206;20.996;2022-11-15T08:05:42;29.00;;;12.20;;
20322;SDS011;10319;52.206;20.996;2022-11-15T08:08:08;33.03;;;11.63;;
20322;SDS011;10319;52.206;20.996;2022-11-15T08:10:33;28.10;;;11.37;;
20322;SDS011;10319;52.206;20.996;2022-11-15T08:12:59;29.33;;;12.70;;
20322;SDS011;10319;52.206;20.996;2022-11-15T08:15:25;30.57;;;12.73;;
20322;SDS011;10319;52.206;20.996;2022-11-15T08:17:56;27.67;;;11.93;;
20322;SDS011;10319;52.206;20.996;2022-11-15T08:20:22;31.63;;;13.67;;
20322;SDS011;10319;52.206;20.996;2022-11-15T08:22:47;28.47;;;11.67;;
20322;SDS011;10319;52.206;20.996;2022-11-15T08:25:13;30.33;;;11.93;;
20322;SDS011;10319;52.206;20.996;2022-11-15T08:27:38;29.17;;;12.60;;
20322;SDS011;10319;52.206;20.996;2022-11-15T08:30:03;31.53;;;13.27;;
20322;SDS011;10319;52.206;20.996;2022-11-15T08:32:30;32.53;;;12.83;;
20322;SDS011;10319;52.206;20.996;2022-11-15T08:34:55;34.03;;;13.73;;
20322;SDS011;10319;52.206;20.996;2022-11-15T08:37:20;34.97;;;14.33;;
20322;SDS011;10319;52.206;20.996;2022-11-15T08:39:45;35.63;;;14.00;;
20322;SDS011;10319;52.206;20.996;2022-11-15T08:42:11;30.43;;;12.23;;
20322;SDS011;10319;52.206;20.996;2022-11-15T08:44:36;32.57;;;13.10;;
20322;SDS011;10319;52.206;20.996;2022-11-15T08:47:01;31.13;;;12.47;;
20322;SDS011;10319;52.206;20.996;2022-11-15T08:49:26;32.30;;;13.13;;
20322;SDS011;10319;52.206;20.996;2022-11-15T08:51:51;28.03;;;11.87;;
20322;SDS011;10319;52.206;20.996;2022-11-15T08:54:17;32.63;;;13.00;;
20322;SDS011;10319;52.206;20.996;2022-11-15T08:56:42;31.70;;;12.40;;
20322;SDS011;10319;52.206;20.996;2022-11-15T08:59:07;30.73;;;12.77;;
20322;SDS011;10319;52.206;20.996;2022-11-15T09:01:32;32.10;;;13.50;;
20322;SDS011;10319;52.206;20.996;2022-11-15T09:03:58;31.67;;;12.53;;
20322;SDS011;10319;52.206;20.996;2022-11-15T09:06:23;31.97;;;12.70;;
20322;SDS011;10319;52.206;20.996;2022-11-15T09:08:48;31.00;;;13.10;;
20322;SDS011;10319;52.206;20.996;2022-11-15T09:11:13;33.90;;;13.03;;
20322;SDS011;10319;52.206;20.996;2022-11-15T09:13:39;34.30;;;13.37;;
20322;SDS011;10319;52.206;20.996;2022-11-15T09:16:04;28.27;;;12.10;;
20322;SDS011;10319;52.206;20.996;2022-11-15T09:18:30;30.87;;;12.23;;
20322;SDS011;10319;52.206;20.996;2022-11-15T09:20:59;27.80;;;11.80;;
20322;SDS011;10319;52.206;20.996;2022-11-15T09:23:24;31.80;;;12.63;;
20322;SDS011;10319;52.206;20.996;2022-11-15T09:25:50;30.77;;;12.70;;
20322;SDS011;10319;52.206;20.996;2022-11-15T09:28:15;29.73;;;12.60;;
20322;SDS011;10319;52.206;20.996;2022-11-15T09:30:40;30.53;;;12.40;;
20322;SDS011;10319;52.206;20.996;2022-11-15T09:33:07;32.97;;;13.83;;
20322;SDS011;10319;52.206;20.996;2022-11-15T09:35:32;29.13;;;12.60;;
20322;SDS011;10319;52.206;20.996;2022-11-15T09:37:57;32.07;;;14.23;;
20322;SDS011;10319;52.206;20.996;2022-11-15T09:40:22;32.13;;;13.33;;
20322;SDS011;10319;52.206;20.996;2022-11-15T09:42:55;30.70;;;13.83;;
20322;SDS011;10319;52.206;20.996;2022-11-15T09:45:32;28.70;;;11.50;;
20322;SDS011;10319;52.206;20.996;2022-11-15T09:50:57;32.67;;;13.60;;
20322;SDS011;10319;52.206;20.996;2022-11-15T09:53:47;33.10;;;14.10;;
20322;SDS011;10319;52.206;20.996;2022-11-15T09:56:15;30.03;;;12.43;;
20322;SDS011;10319;52.206;20.996;2022-11-15T09:58:48;30.50;;;13.63;;
20322;SDS011;10319;52.206;20.996;2022-11-15T10:04:07;29.57;;;13.30;;
20322;SDS011;10319;52.206;20.996;2022-11-15T10:06:32;30.33;;;13.60;;
20322;SDS011;10319;52.206;20.996;2022-11-15T10:12:03;29.20;;;12.97;;
20322;SDS011;10319;52.206;20.996;2022-11-15T10:14:29;30.70;;;13.17;;
20322;SDS011;10319;52.206;20.996;2022-11-15T10:17:17;33.70;;;13.80;;
20322;SDS011;10319;52.206;20.996;2022-11-15T10:19:47;29.40;;;13.07;;
20322;SDS011;10319;52.206;20.996;2022-11-15T10:22:24;29.77;;;13.13;;
20322;SDS011;10319;52.206;20.996;2022-11-15T10:24:50;30.73;;;13.60;;
20322;SDS011;10319;52.206;20.996;2022-11-15T10:27:17;31.00;;;13.20;;
20322;SDS011;10319;52.206;20.996;2022-11-15T10:29:44;30.90;;;13.87;;
20322;SDS011;10319;52.206;20.996;2022-11-15T10:32:13;33.97;;;13.27;;
20322;SDS011;10319;52.206;20.996;2022-11-15T10:34:39;29.63;;;13.07;;
20322;SDS011;10319;52.206;20.996;2022-11-15T10:37:04;28.03;;;13.17;;
20322;SDS011;10319;52.206;20.996;2022-11-15T10:39:29;29.17;;;12.77;;
20322;SDS011;10319;52.206;20.996;2022-11-15T10:41:54;29.87;;;13.07;;
20322;SDS011;10319;52.206;20.996;2022-11-15T10:44:24;27.53;;;11.63;;
20322;SDS011;10319;52.206;20.996;2022-11-15T10:49:25;32.23;;;13.97;;
20322;SDS011;10319;52.206;20.996;2022-11-15T10:54:36;28.70;;;12.40;;
20322;SDS011;10319;52.206;20.996;2022-11-15T10:57:12;31.57;;;14.63;;
20322;SDS011;10319;52.206;20.996;2022-11-15T10:59:38;32.80;;;14.37;;
20322;SDS011;10319;52.206;20.996;2022-11-15T11:04:52;32.13;;;13.57;;
20322;SDS011;10319;52.206;20.996;2022-11-15T11:07:21;30.70;;;13.33;;
20322;SDS011;10319;52.206;20.996;2022-11-15T11:09:47;29.50;;;13.00;;
20322;SDS011;10319;52.206;20.996;2022-11-15T11:12:20;30.83;;;13.57;;
20322;SDS011;10319;52.206;20.996;2022-11-15T11:14:51;31.43;;;13.73;;
20322;SDS011;10319;52.206;20.996;2022-11-15T11:20:07;31.03;;;13.53;;
20322;SDS011;10319;52.206;20.996;2022-11-15T11:22:47;27.67;;;12.90;;
20322;SDS011;10319;52.206;20.996;2022-11-15T11:31:04;33.27;;;14.97;;
20322;SDS011;10319;52.206;20.996;2022-11-15T11:33:32;38.77;;;16.37;;
20322;SDS011;10319;52.206;20.996;2022-11-15T11:48:45;36.50;;;16.47;;
20322;SDS011;10319;52.206;20.996;2022-11-15T11:51:13;35.47;;;15.50;;
20322;SDS011;10319;52.206;20.996;2022-11-15T11:53:41;34.53;;;15.03;;
20322;SDS011;10319;52.206;20.996;2022-11-15T11:56:19;34.60;;;15.10;;
20322;SDS011;10319;52.206;20.996;2022-11-15T11:58:46;36.23;;;15.93;;
20322;SDS011;10319;52.206;20.996;2022-11-15T12:01:17;34.33;;;15.77;;
20322;SDS011;10319;52.206;20.996;2022-11-15T12:03:57;36.77;;;15.60;;
20322;SDS011;10319;52.206;20.996;2022-11-15T12:06:27;35.37;;;15.67;;
20322;SDS011;10319;52.206;20.996;2022-11-15T12:14:10;37.57;;;16.43;;
20322;SDS011;10319;52.206;20.996;2022-11-15T12:16:36;31.20;;;13.73;;
20322;SDS011;10319;52.206;20.996;2022-11-15T12:19:03;31.37;;;14.23;;
20322;SDS011;10319;52.206;20.996;2022-11-15T12:24:03;33.07;;;15.13;;
20322;SDS011;10319;52.206;20.996;2022-11-15T12:26:34;32.73;;;14.63;;
20322;SDS011;10319;52.206;20.996;2022-11-15T12:29:02;35.93;;;15.33;;
20322;SDS011;10319;52.206;20.996;2022-11-15T12:33:57;34.07;;;16.33;;
20322;SDS011;10319;52.206;20.996;2022-11-15T12:41:28;37.40;;;16.73;;
20322;SDS011;10319;52.206;20.996;2022-11-15T12:43:54;36.30;;;17.10;;
20322;SDS011;10319;52.206;20.996;2022-11-15T12:48:52;36.33;;;15.40;;
20322;SDS011;10319;52.206;20.996;2022-11-15T12:51:19;33.53;;;15.60;;
20322;SDS011;10319;52.206;20.996;2022-11-15T12:53:44;30.57;;;14.17;;
20322;SDS011;10319;52.206;20.996;2022-11-15T12:58:50;27.90;;;13.07;;
20322;SDS011;10319;52.206;20.996;2022-11-15T13:06:42;33.73;;;15.17;;
20322;SDS011;10319;52.206;20.996;2022-11-15T13:11:52;35.10;;;15.77;;
20322;SDS011;10319;52.206;20.996;2022-11-15T13:17:01;38.80;;;17.30;;
20322;SDS011;10319;52.206;20.996;2022-11-15T13:19:26;33.80;;;15.67;;
20322;SDS011;10319;52.206;20.996;2022-11-15T13:21:51;36.30;;;16.67;;
20322;SDS011;10319;52.206;20.996;2022-11-15T13:24:37;35.30;;;15.83;;
20322;SDS011;10319;52.206;20.996;2022-11-15T13:27:09;38.03;;;15.50;;
20322;SDS011;10319;52.206;20.996;2022-11-15T13:29:34;34.47;;;15.83;;
20322;SDS011;10319;52.206;20.996;2022-11-15T13:31:59;33.40;;;14.93;;
20322;SDS011;10319;52.206;20.996;2022-11-15T13:36:50;33.70;;;15.07;;
20322;SDS011;10319;52.206;20.996;2022-11-15T13:39:29;36.57;;;16.63;;
20322;SDS011;10319;52.206;20.996;2022-11-15T13:41:54;35.90;;;15.70;;
20322;SDS011;10319;52.206;20.996;2022-11-15T13:44:20;33.57;;;15.17;;
20322;SDS011;10319;52.206;20.996;2022-11-15T13:46:46;36.87;;;16.07;;
20322;SDS011;10319;52.206;20.996;2022-11-15T13:49:11;28.73;;;13.10;;
20322;SDS011;10319;52.206;20.996;2022-11-15T13:51:44;40.00;;;17.20;;
20322;SDS011;10319;52.206;20.996;2022-11-15T13:56:37;34.53;;;15.35;;
20322;SDS011;10319;52.206;20.996;2022-11-15T14:01:46;38.03;;;17.43;;
20322;SDS011;10319;52.206;20.996;2022-11-15T14:04:12;38.30;;;18.53;;
20322;SDS011;10319;52.206;20.996;2022-11-15T14:06:46;37.13;;;17.07;;
20322;SDS011;10319;52.206;20.996;2022-11-15T14:09:32;35.87;;;17.17;;
20322;SDS011;10319;52.206;20.996;2022-11-15T14:11:58;38.87;;;17.53;;
20322;SDS011;10319;52.206;20.996;2022-11-15T14:14:24;35.17;;;14.50;;
20322;SDS011;10319;52.206;20.996;2022-11-15T14:16:51;33.40;;;15.40;;
20322;SDS011;10319;52.206;20.996;2022-11-15T14:19:33;34.30;;;14.73;;
20322;SDS011;10319;52.206;20.996;2022-11-15T14:22:08;31.37;;;14.90;;
20322;SDS011;10319;52.206;20.996;2022-11-15T14:24:34;37.40;;;17.47;;
20322;SDS011;10319;52.206;20.996;2022-11-15T14:27:23;40.63;;;18.80;;
20322;SDS011;10319;52.206;20.996;2022-11-15T14:29:48;33.90;;;15.60;;
20322;SDS011;10319;52.206;20.996;2022-11-15T14:32:15;33.83;;;15.00;;
20322;SDS011;10319;52.206;20.996;2022-11-15T14:34:40;33.67;;;14.17;;
20322;SDS011;10319;52.206;20.996;2022-11-15T14:37:10;33.40;;;14.83;;
20322;SDS011;10319;52.206;20.996;2022-11-15T14:39:41;33.23;;;15.30;;
20322;SDS011;10319;52.206;20.996;2022-11-15T14:42:08;35.00;;;14.67;;
20322;SDS011;10319;52.206;20.996;2022-11-15T14:44:34;33.80;;;15.53;;
20322;SDS011;10319;52.206;20.996;2022-11-15T14:46:59;34.67;;;15.37;;
20322;SDS011;10319;52.206;20.996;2022-11-15T14:49:24;37.20;;;16.40;;
20322;SDS011;10319;52.206;20.996;2022-11-15T14:51:50;37.70;;;17.10;;
20322;SDS011;10319;52.206;20.996;2022-11-15T14:54:15;35.43;;;15.90;;
20322;SDS011;10319;52.206;20.996;2022-11-15T14:56:40;40.13;;;17.07;;
20322;SDS011;10319;52.206;20.996;2022-11-15T14:59:07;37.57;;;17.80;;
20322;SDS011;10319;52.206;20.996;2022-11-15T15:01:33;34.17;;;16.83;;
20322;SDS011;10319;52.206;20.996;2022-11-15T15:03:58;36.90;;;16.53;;
20322;SDS011;10319;52.206;20.996;2022-11-15T15:06:24;37.73;;;15.87;;
20322;SDS011;10319;52.206;20.996;2022-11-15T15:08:50;38.23;;;17.57;;
20322;SDS011;10319;52.206;20.996;2022-11-15T15:11:34;39.53;;;17.70;;
20322;SDS011;10319;52.206;20.996;2022-11-15T15:13:59;39.27;;;17.63;;
20322;SDS011;10319;52.206;20.996;2022-11-15T15:16:26;38.03;;;16.77;;
20322;SDS011;10319;52.206;20.996;2022-11-15T15:18:51;38.83;;;16.83;;
20322;SDS011;10319;52.206;20.996;2022-11-15T15:23:47;36.73;;;16.37;;
20322;SDS011;10319;52.206;20.996;2022-11-15T15:26:13;35.03;;;15.47;;
20322;SDS011;10319;52.206;20.996;2022-11-15T15:28:38;40.90;;;18.17;;
20322;SDS011;10319;52.206;20.996;2022-11-15T15:31:04;42.50;;;18.43;;
20322;SDS011;10319;52.206;20.996;2022-11-15T15:33:29;38.93;;;17.37;;
20322;SDS011;10319;52.206;20.996;2022-11-15T15:35:55;43.97;;;17.90;;
20322;SDS011;10319;52.206;20.996;2022-11-15T15:38:20;38.93;;;17.30;;
20322;SDS011;10319;52.206;20.996;2022-11-15T15:40:46;45.23;;;18.77;;
20322;SDS011;10319;52.206;20.996;2022-11-15T15:43:11;38.60;;;16.87;;
20322;SDS011;10319;52.206;20.996;2022-11-15T15:45:37;38.53;;;17.17;;
20322;SDS011;10319;52.206;20.996;2022-11-15T15:48:03;41.33;;;18.40;;
20322;SDS011;10319;52.206;20.996;2022-11-15T15:50:29;39.73;;;17.53;;
20322;SDS011;10319;52.206;20.996;2022-11-15T15:52:59;44.67;;;19.00;;
20322;SDS011;10319;52.206;20.996;2022-11-15T15:55:25;42.90;;;17.80;;